createdAt,value
2022-08-24T00:01:57.981Z,58.03
2022-08-24T00:04:26.719Z,58.37
2022-08-24T00:06:56.360Z,58.04
2022-08-24T00:09:25.970Z,58.10
2022-08-24T00:11:53.865Z,57.93
2022-08-24T00:14:21.856Z,58.28
2022-08-24T00:16:49.906Z,58.74
2022-08-24T00:19:18.752Z,58.52
2022-08-24T00:21:46.786Z,58.41
2022-08-24T00:24:14.728Z,58.38
2022-08-24T00:26:45.963Z,58.62
2022-08-24T00:29:14.152Z,58.92
2022-08-24T00:31:42.164Z,58.79
2022-08-24T00:34:10.556Z,58.90
2022-08-24T00:36:38.442Z,59.26
2022-08-24T00:39:08.024Z,59.45
2022-08-24T00:41:39.207Z,59.50
2022-08-24T00:44:09.839Z,59.41
2022-08-24T00:46:44.674Z,59.22
2022-08-24T00:49:19.675Z,59.41
2022-08-24T00:51:55.570Z,59.70
2022-08-24T00:54:26.893Z,59.81
2022-08-24T00:56:59.710Z,60.03
2022-08-24T00:59:33.522Z,60.06
2022-08-24T01:02:15.548Z,60.35
2022-08-24T01:04:50.504Z,60.64
2022-08-24T01:07:18.587Z,60.41
2022-08-24T01:09:46.996Z,60.80
2022-08-24T01:12:14.963Z,60.61
2022-08-24T01:14:45.094Z,61.00
2022-08-24T01:17:33.039Z,60.99
2022-08-24T01:20:05.492Z,61.04
2022-08-24T01:22:50.923Z,60.85
2022-08-24T01:25:21.386Z,60.92
2022-08-24T01:27:51.771Z,60.99
2022-08-24T01:30:21.953Z,60.87
2022-08-24T01:33:01.460Z,61.57
2022-08-24T01:35:31.381Z,61.27
2022-08-24T01:38:03.331Z,61.46
2022-08-24T01:40:36.671Z,61.59
2022-08-24T01:43:07.367Z,61.83
2022-08-24T01:45:35.928Z,61.53
2022-08-24T01:48:06.052Z,61.76
2022-08-24T01:50:35.012Z,61.82
2022-08-24T01:53:05.943Z,62.00
2022-08-24T01:55:36.889Z,61.95
2022-08-24T01:58:05.455Z,62.12
2022-08-24T02:00:35.128Z,61.89
2022-08-24T02:03:03.702Z,62.22
2022-08-24T02:05:31.899Z,62.11
2022-08-24T02:08:00.032Z,62.21
2022-08-24T02:10:28.528Z,62.26
2022-08-24T02:12:59.402Z,62.39
2022-08-24T02:15:30.269Z,62.20
2022-08-24T02:17:59.060Z,62.09
2022-08-24T02:20:28.715Z,62.35
2022-08-24T02:22:57.078Z,62.55
2022-08-24T02:25:26.363Z,62.65
2022-08-24T02:27:54.456Z,62.89
2022-08-24T02:30:23.692Z,62.74
2022-08-24T02:32:51.587Z,62.90
2022-08-24T02:35:19.951Z,63.15
2022-08-24T02:37:49.747Z,62.95
2022-08-24T02:40:18.241Z,62.90
2022-08-24T02:42:46.993Z,63.12
2022-08-24T02:45:15.420Z,63.15
2022-08-24T02:47:45.185Z,63.32
2022-08-24T02:50:15.593Z,63.18
2022-08-24T02:52:45.051Z,63.37
2022-08-24T02:55:15.208Z,63.60
2022-08-24T02:57:43.293Z,63.51
2022-08-24T03:00:15.619Z,63.70
2022-08-24T03:02:53.198Z,63.77
2022-08-24T03:05:23.511Z,63.33
2022-08-24T03:07:52.280Z,63.44
2022-08-24T03:10:21.279Z,63.42
2022-08-24T03:12:49.695Z,63.54
2022-08-24T03:15:22.496Z,63.65
2022-08-24T03:17:52.263Z,63.52
2022-08-24T03:20:22.468Z,63.33
2022-08-24T03:22:51.333Z,63.83
2022-08-24T03:25:20.825Z,63.92
2022-08-24T03:27:48.837Z,63.88
2022-08-24T03:30:19.725Z,64.33
2022-08-24T03:32:50.393Z,64.14
2022-08-24T03:35:21.981Z,64.19
2022-08-24T03:37:50.872Z,64.33
2022-08-24T03:40:23.110Z,64.40
2022-08-24T03:42:55.521Z,64.11
2022-08-24T03:45:24.110Z,64.13
2022-08-24T03:47:53.227Z,64.22
2022-08-24T03:50:24.660Z,64.18
2022-08-24T03:52:53.229Z,64.45
2022-08-24T03:55:21.715Z,64.02
2022-08-24T03:57:50.074Z,64.48
2022-08-24T04:00:18.560Z,64.61
2022-08-24T04:02:56.332Z,64.65
2022-08-24T04:05:27.651Z,64.68
2022-08-24T04:08:02.864Z,64.54
2022-08-24T04:10:30.862Z,64.53
2022-08-24T04:13:01.424Z,64.67
2022-08-24T04:15:32.172Z,64.69
2022-08-24T04:18:00.213Z,65.02
2022-08-24T04:20:29.568Z,64.86
2022-08-24T04:22:57.626Z,64.94
2022-08-24T04:25:25.819Z,64.76
2022-08-24T04:27:53.754Z,65.13
2022-08-24T04:30:24.691Z,65.51
2022-08-24T04:33:15.192Z,66.45
2022-08-24T04:35:48.309Z,66.58
2022-08-24T04:38:17.884Z,66.55
2022-08-24T04:41:00.216Z,66.63
2022-08-24T04:43:28.666Z,66.55
2022-08-24T04:45:59.320Z,66.08
2022-08-24T04:48:27.352Z,66.62
2022-08-24T04:50:56.693Z,66.57
2022-08-24T04:53:24.550Z,66.28
2022-08-24T04:55:54.072Z,65.90
2022-08-24T04:58:22.200Z,65.57
2022-08-24T05:00:50.468Z,65.24
2022-08-24T05:03:19.303Z,65.16
2022-08-24T05:05:50.186Z,65.44
2022-08-24T05:08:20.918Z,65.13
2022-08-24T05:10:51.394Z,64.86
2022-08-24T05:13:21.311Z,64.93
2022-08-24T05:15:50.169Z,64.69
2022-08-24T05:18:18.704Z,64.70
2022-08-24T05:20:48.845Z,64.71
2022-08-24T05:23:18.883Z,64.55
2022-08-24T05:25:48.571Z,64.82
2022-08-24T05:28:17.931Z,64.35
2022-08-24T05:30:45.948Z,64.26
2022-08-24T05:33:14.380Z,63.97
2022-08-24T05:35:43.884Z,63.99
2022-08-24T05:38:12.651Z,63.94
2022-08-24T05:40:41.285Z,64.00
2022-08-24T05:43:11.362Z,63.99
2022-08-24T05:45:43.375Z,64.17
2022-08-24T05:48:12.343Z,63.32
2022-08-24T05:51:03.230Z,62.25
2022-08-24T05:53:35.562Z,62.17
2022-08-24T05:56:05.646Z,62.38
2022-08-24T05:58:35.289Z,63.12
2022-08-24T06:01:07.972Z,62.63
2022-08-24T06:03:36.024Z,62.28
2022-08-24T06:06:08.591Z,62.42
2022-08-24T06:08:41.061Z,61.86
2022-08-24T06:11:11.232Z,61.48
2022-08-24T06:13:41.065Z,61.49
2022-08-24T06:16:21.842Z,61.17
2022-08-24T06:18:52.277Z,60.70
2022-08-24T06:21:23.384Z,60.52
2022-08-24T06:23:52.287Z,60.39
2022-08-24T06:26:51.276Z,60.38
2022-08-24T06:29:21.977Z,59.71
2022-08-24T06:31:56.377Z,59.76
2022-08-24T06:34:27.003Z,58.85
2022-08-24T06:36:55.164Z,59.02
2022-08-24T06:39:26.402Z,58.52
2022-08-24T06:41:56.411Z,58.45
2022-08-24T06:44:33.526Z,58.34
2022-08-24T06:47:14.619Z,58.21
2022-08-24T06:49:42.802Z,58.02
2022-08-24T06:52:11.499Z,57.90
2022-08-24T06:54:40.164Z,57.67
2022-08-24T06:57:08.433Z,57.47
2022-08-24T06:59:37.679Z,57.15
2022-08-24T07:03:20.921Z,56.78
2022-08-24T07:05:58.279Z,56.18
2022-08-24T07:08:53.290Z,55.55
2022-08-24T07:11:21.994Z,55.49
2022-08-24T07:13:50.886Z,55.01
2022-08-24T07:16:22.397Z,54.93
2022-08-24T07:18:55.416Z,54.85
2022-08-24T07:21:23.946Z,54.09
2022-08-24T07:23:56.941Z,53.56
2022-08-24T07:26:28.202Z,53.35
2022-08-24T07:29:04.901Z,53.48
2022-08-24T07:31:40.741Z,52.92
2022-08-24T07:34:23.456Z,52.57
2022-08-24T07:36:52.427Z,52.00
2022-08-24T07:39:20.767Z,51.54
2022-08-24T07:42:11.432Z,51.23
2022-08-24T07:44:37.224Z,50.71
2022-08-24T07:47:27.300Z,50.99
2022-08-24T07:49:55.564Z,51.35
2022-08-24T07:52:23.444Z,50.39
2022-08-24T07:54:52.097Z,50.20
2022-08-24T07:57:20.473Z,49.67
2022-08-24T07:59:48.687Z,50.03
2022-08-24T08:02:18.371Z,49.80
2022-08-24T08:04:50.039Z,49.71
2022-08-24T08:07:19.568Z,49.71
2022-08-24T08:09:50.728Z,49.56
2022-08-24T08:12:19.284Z,48.81
2022-08-24T08:14:57.407Z,47.97
2022-08-24T08:17:26.935Z,47.96
2022-08-24T08:19:55.328Z,47.60
2022-08-24T08:22:42.380Z,44.75
2022-08-24T08:25:29.117Z,43.94
2022-08-24T08:28:04.274Z,43.54
2022-08-24T08:30:42.014Z,43.18
2022-08-24T08:33:11.302Z,42.76
2022-08-24T08:35:40.657Z,42.65
2022-08-24T08:38:09.539Z,43.29
2022-08-24T08:40:55.374Z,41.83
2022-08-24T08:43:38.338Z,42.33
2022-08-24T08:46:22.355Z,41.38
2022-08-24T08:49:42.954Z,41.12
2022-08-24T08:53:07.828Z,40.05
2022-08-24T08:55:43.286Z,39.62
2022-08-24T08:58:24.723Z,39.01
2022-08-24T09:01:04.859Z,39.83
2022-08-24T09:03:56.986Z,38.76
2022-08-24T09:07:14.419Z,38.76
2022-08-24T09:10:04.539Z,38.55
2022-08-24T09:12:52.427Z,38.42
2022-08-24T09:15:46.767Z,37.85
2022-08-24T09:18:30.780Z,37.49
2022-08-24T09:21:15.188Z,37.57
2022-08-24T09:23:54.631Z,36.96
2022-08-24T09:26:27.688Z,37.42
2022-08-24T09:29:10.793Z,36.84
2022-08-24T09:32:01.962Z,35.80
2022-08-24T09:34:38.191Z,35.72
2022-08-24T09:37:26.239Z,36.31
2022-08-24T09:40:02.551Z,37.03
2022-08-24T09:43:01.087Z,35.04
2022-08-24T09:46:01.223Z,34.18
2022-08-24T09:49:13.615Z,33.87
2022-08-24T09:52:04.220Z,34.20
2022-08-24T09:55:09.288Z,33.59
2022-08-24T09:58:01.839Z,32.45
2022-08-24T10:00:35.124Z,32.27
2022-08-24T10:03:26.253Z,31.83
2022-08-24T10:06:21.704Z,31.88
2022-08-24T10:09:13.471Z,32.56
2022-08-24T10:11:52.924Z,31.84
2022-08-24T10:14:35.368Z,32.34
2022-08-24T10:17:10.942Z,33.46
2022-08-24T10:19:56.140Z,32.61
2022-08-24T10:22:37.622Z,32.27
2022-08-24T10:25:20.914Z,32.37
2022-08-24T10:27:57.040Z,32.81
2022-08-24T10:30:56.482Z,33.75
2022-08-24T10:33:28.304Z,32.92
2022-08-24T10:36:28.628Z,33.36
2022-08-24T10:39:33.978Z,32.90
2022-08-24T10:42:54.737Z,33.62
2022-08-24T10:45:42.614Z,32.76
2022-08-24T10:48:41.372Z,32.17
2022-08-24T10:51:24.595Z,31.90
2022-08-24T10:53:54.590Z,32.13
2022-08-24T10:56:31.487Z,32.41
2022-08-24T10:59:08.194Z,32.89
2022-08-24T11:01:38.667Z,33.12
2022-08-24T11:04:10.537Z,33.57
2022-08-24T11:06:42.062Z,33.62
2022-08-24T11:09:19.177Z,33.37
2022-08-24T11:11:50.032Z,33.89
2022-08-24T11:14:26.572Z,34.04
2022-08-24T11:16:57.666Z,33.44
2022-08-24T11:19:34.958Z,33.37
2022-08-24T11:22:07.353Z,33.74
2022-08-24T11:24:47.579Z,34.15
2022-08-24T11:27:31.451Z,33.81
2022-08-24T11:30:02.480Z,33.99
2022-08-24T11:32:34.702Z,34.08
2022-08-24T11:35:06.547Z,33.80
2022-08-24T11:37:38.601Z,34.03
2022-08-24T11:40:08.044Z,34.08
2022-08-24T11:42:46.228Z,34.00
2022-08-24T11:45:20.975Z,32.87
2022-08-24T11:47:59.897Z,32.97
2022-08-24T11:50:34.103Z,33.42
2022-08-24T11:53:13.323Z,32.88
2022-08-24T11:55:51.639Z,32.38
2022-08-24T11:58:46.227Z,32.17
2022-08-24T12:01:20.517Z,32.10
2022-08-24T12:04:02.775Z,33.31
2022-08-24T12:06:44.363Z,32.78
2022-08-24T12:09:25.183Z,33.93
2022-08-24T12:12:00.269Z,33.47
2022-08-24T12:14:38.306Z,32.97
2022-08-24T12:17:16.773Z,32.31
2022-08-24T12:19:49.641Z,33.03
2022-08-24T12:22:20.713Z,33.55
2022-08-24T12:24:52.380Z,32.96
2022-08-24T12:27:24.508Z,33.56
2022-08-24T12:30:00.412Z,33.66
2022-08-24T12:32:37.556Z,33.36
2022-08-24T12:35:10.169Z,33.77
2022-08-24T12:37:43.677Z,33.24
2022-08-24T12:40:27.549Z,32.64
2022-08-24T12:43:00.010Z,32.60
2022-08-24T12:45:29.966Z,32.40
2022-08-24T12:48:03.853Z,32.52
2022-08-24T12:50:40.958Z,32.16
2022-08-24T12:53:42.385Z,31.27
2022-08-24T12:56:35.051Z,31.21
2022-08-24T12:59:08.397Z,30.77
2022-08-24T13:01:41.916Z,30.59
2022-08-24T13:04:19.531Z,31.30
2022-08-24T13:06:55.295Z,31.07
2022-08-24T13:09:33.335Z,32.23
2022-08-24T13:12:42.126Z,31.98
2022-08-24T13:15:55.622Z,32.59
2022-08-24T13:18:52.187Z,32.16
2022-08-24T13:21:39.688Z,31.93
2022-08-24T13:24:51.271Z,32.44
2022-08-24T13:28:06.872Z,31.03
2022-08-24T13:31:04.188Z,31.42
2022-08-24T13:33:37.295Z,30.16
2022-08-24T13:36:34.137Z,30.74
2022-08-24T13:39:11.355Z,29.85
2022-08-24T13:41:54.056Z,29.55
2022-08-24T13:44:38.952Z,29.99
2022-08-24T13:47:16.762Z,30.69
2022-08-24T13:50:01.878Z,31.06
2022-08-24T13:52:40.223Z,29.95
2022-08-24T13:55:31.626Z,29.65
2022-08-24T13:58:13.946Z,27.96
2022-08-24T14:00:51.899Z,28.94
2022-08-24T14:03:52.768Z,30.03
2022-08-24T14:06:41.339Z,29.66
2022-08-24T14:09:23.598Z,29.80
2022-08-24T14:12:07.424Z,29.99
2022-08-24T14:15:04.060Z,29.74
2022-08-24T14:17:55.022Z,29.22
2022-08-24T14:20:40.709Z,28.08
2022-08-24T14:23:23.110Z,28.01
2022-08-24T14:25:51.879Z,27.68
2022-08-24T14:28:40.383Z,30.06
2022-08-24T14:31:20.843Z,30.02
2022-08-24T14:34:09.647Z,30.65
2022-08-24T14:36:49.283Z,30.53
2022-08-24T14:39:35.835Z,29.82
2022-08-24T14:42:16.739Z,30.67
2022-08-24T14:45:02.375Z,31.12
2022-08-24T14:47:44.332Z,30.32
2022-08-24T14:50:16.076Z,30.06
2022-08-24T14:52:54.876Z,30.31
2022-08-24T14:55:31.276Z,30.57
2022-08-24T14:58:09.156Z,28.57
2022-08-24T15:00:53.987Z,29.94
2022-08-24T15:03:44.670Z,30.21
2022-08-24T15:06:27.839Z,29.94
2022-08-24T15:09:08.931Z,30.46
2022-08-24T15:11:39.158Z,31.00
2022-08-24T15:14:09.690Z,31.13
2022-08-24T15:16:53.254Z,30.02
2022-08-24T15:19:28.711Z,32.31
2022-08-24T15:22:03.759Z,33.59
2022-08-24T15:24:41.320Z,33.05
2022-08-24T15:27:20.352Z,33.08
2022-08-24T15:29:52.976Z,31.95
2022-08-24T15:32:21.649Z,31.78
2022-08-24T15:34:58.282Z,32.49
2022-08-24T15:37:31.542Z,32.89
2022-08-24T15:40:00.345Z,33.09
2022-08-24T15:42:31.251Z,33.04
2022-08-24T15:45:02.504Z,32.35
2022-08-24T15:47:33.960Z,34.02
2022-08-24T15:50:04.096Z,35.12
2022-08-24T15:52:47.914Z,35.26
2022-08-24T15:55:36.223Z,35.97
2022-08-24T15:58:28.334Z,36.01
2022-08-24T16:01:19.583Z,36.18
2022-08-24T16:03:51.329Z,36.93
2022-08-24T16:06:26.006Z,37.00
2022-08-24T16:09:02.563Z,36.98
2022-08-24T16:11:34.906Z,37.11
2022-08-24T16:14:03.754Z,37.03
2022-08-24T16:16:37.907Z,37.15
2022-08-24T16:19:08.752Z,36.37
2022-08-24T16:21:39.213Z,37.75
2022-08-24T16:24:13.443Z,38.00
2022-08-24T16:26:58.146Z,37.93
2022-08-24T16:29:55.628Z,38.31
2022-08-24T16:32:33.743Z,38.81
2022-08-24T16:35:19.592Z,39.20
2022-08-24T16:37:47.492Z,39.75
2022-08-24T16:40:17.382Z,39.86
2022-08-24T16:42:46.060Z,40.08
2022-08-24T16:45:18.404Z,39.60
2022-08-24T16:47:46.961Z,40.30
2022-08-24T16:50:16.479Z,40.09
2022-08-24T16:52:44.368Z,40.20
2022-08-24T16:55:14.498Z,39.79
2022-08-24T16:57:44.961Z,40.03
2022-08-24T17:00:17.357Z,40.32
2022-08-24T17:02:46.586Z,40.11
2022-08-24T17:05:15.594Z,40.36
2022-08-24T17:07:44.105Z,40.15
2022-08-24T17:10:15.406Z,40.51
2022-08-24T17:12:45.028Z,40.43
2022-08-24T17:15:16.110Z,41.07
2022-08-24T17:17:49.144Z,40.39
2022-08-24T17:20:17.138Z,40.63
2022-08-24T17:22:45.105Z,41.16
2022-08-24T17:25:13.684Z,41.25
2022-08-24T17:27:42.182Z,41.78
2022-08-24T17:30:16.546Z,41.77
2022-08-24T17:32:44.948Z,42.31
2022-08-24T17:35:12.871Z,42.25
2022-08-24T17:37:41.146Z,42.03
2022-08-24T17:40:14.171Z,42.75
2022-08-24T17:42:51.850Z,42.99
2022-08-24T17:45:23.163Z,42.90
2022-08-24T17:47:52.602Z,43.17
2022-08-24T17:50:24.189Z,43.15
2022-08-24T17:52:58.836Z,43.49
2022-08-24T17:55:29.050Z,43.72
2022-08-24T17:57:57.097Z,43.71
2022-08-24T18:00:26.692Z,43.93
2022-08-24T18:02:54.586Z,44.25
2022-08-24T18:05:22.670Z,44.03
2022-08-24T18:07:54.478Z,44.46
2022-08-24T18:10:25.921Z,44.58
2022-08-24T18:12:54.325Z,44.51
2022-08-24T18:15:30.105Z,44.97
2022-08-24T18:18:08.776Z,45.05
2022-08-24T18:20:39.880Z,45.43
2022-08-24T18:23:11.375Z,45.52
2022-08-24T18:25:44.793Z,45.67
2022-08-24T18:28:13.184Z,45.76
2022-08-24T18:30:41.844Z,46.11
2022-08-24T18:33:13.396Z,46.31
2022-08-24T18:35:41.526Z,46.39
2022-08-24T18:38:09.690Z,46.90
2022-08-24T18:40:38.074Z,47.20
2022-08-24T18:43:06.746Z,46.32
2022-08-24T18:45:36.034Z,47.21
2022-08-24T18:48:04.519Z,47.65
2022-08-24T18:50:37.752Z,47.75
2022-08-24T18:53:09.016Z,48.00
2022-08-24T18:55:38.639Z,48.55
2022-08-24T18:58:07.485Z,48.34
2022-08-24T19:00:35.546Z,48.31
2022-08-24T19:03:07.319Z,48.79
2022-08-24T19:05:38.309Z,49.00
2022-08-24T19:08:06.497Z,49.02
2022-08-24T19:10:37.201Z,49.36
2022-08-24T19:13:08.974Z,49.61
2022-08-24T19:15:40.346Z,49.73
2022-08-24T19:18:09.745Z,49.97
2022-08-24T19:20:48.075Z,49.91
2022-08-24T19:23:21.133Z,50.38
2022-08-24T19:25:50.028Z,50.37
2022-08-24T19:28:18.098Z,50.35
2022-08-24T19:30:46.968Z,50.55
2022-08-24T19:33:20.387Z,50.99
2022-08-24T19:35:51.952Z,51.04
2022-08-24T19:38:23.358Z,50.86
2022-08-24T19:40:54.458Z,51.19
2022-08-24T19:43:23.778Z,51.55
2022-08-24T19:46:03.244Z,51.76
2022-08-24T19:48:31.862Z,52.13
2022-08-24T19:51:03.417Z,52.07
2022-08-24T19:53:45.372Z,52.27
2022-08-24T19:56:37.545Z,52.17
2022-08-24T19:59:24.626Z,52.62
2022-08-24T20:01:53.507Z,52.78
2022-08-24T20:04:21.482Z,52.72
2022-08-24T20:06:50.825Z,52.65
2022-08-24T20:09:21.802Z,52.92
2022-08-24T20:11:51.525Z,53.19
2022-08-24T20:14:19.453Z,53.15
2022-08-24T20:16:47.431Z,53.37
2022-08-24T20:19:15.347Z,53.32
2022-08-24T20:21:43.303Z,53.31
2022-08-24T20:24:12.618Z,53.22
2022-08-24T20:26:43.585Z,53.75
2022-08-24T20:29:12.519Z,53.99
2022-08-24T20:31:41.337Z,53.60
2022-08-24T20:34:09.251Z,53.86
2022-08-24T20:36:39.481Z,53.73
2022-08-24T20:39:13.670Z,53.95
2022-08-24T20:41:41.727Z,54.13
2022-08-24T20:44:10.236Z,54.25
2022-08-24T20:46:39.436Z,54.22
2022-08-24T20:49:08.242Z,54.50
2022-08-24T20:51:43.219Z,54.62
2022-08-24T20:54:14.666Z,55.00
2022-08-24T20:56:44.640Z,55.49
2022-08-24T20:59:14.280Z,55.25
2022-08-24T21:01:43.481Z,55.37
2022-08-24T21:04:11.886Z,55.46
2022-08-24T21:06:41.490Z,56.11
2022-08-24T21:09:12.703Z,56.04
2022-08-24T21:11:46.232Z,55.96
2022-08-24T21:14:14.187Z,56.23
2022-08-24T21:16:44.313Z,56.14
2022-08-24T21:19:17.493Z,56.09
2022-08-24T21:21:46.818Z,56.03
2022-08-24T21:24:15.459Z,56.31
2022-08-24T21:26:44.961Z,56.80
2022-08-24T21:29:12.810Z,56.56
2022-08-24T21:31:42.434Z,56.52
2022-08-24T21:34:28.117Z,57.23
2022-08-24T21:36:56.110Z,56.82
2022-08-24T21:39:24.013Z,56.96
2022-08-24T21:41:53.437Z,57.39
2022-08-24T21:44:21.287Z,57.19
2022-08-24T21:46:51.867Z,56.92
2022-08-24T21:49:20.111Z,57.17
2022-08-24T21:51:48.112Z,57.03
2022-08-24T21:54:16.067Z,57.60
2022-08-24T21:56:43.937Z,57.32
2022-08-24T21:59:13.656Z,57.11
2022-08-24T22:01:41.894Z,57.31
2022-08-24T22:04:09.808Z,57.84
2022-08-24T22:06:38.075Z,57.92
2022-08-24T22:09:07.282Z,57.88
2022-08-24T22:11:35.514Z,57.54
2022-08-24T22:14:04.767Z,58.32
2022-08-24T22:16:37.167Z,58.02
2022-08-24T22:19:05.753Z,58.16
2022-08-24T22:21:35.768Z,58.43
2022-08-24T22:24:04.876Z,58.64
2022-08-24T22:26:32.824Z,58.39
2022-08-24T22:29:01.676Z,58.24
2022-08-24T22:31:31.973Z,58.47
2022-08-24T22:34:03.736Z,58.48
2022-08-24T22:36:31.622Z,58.62
2022-08-24T22:39:00.102Z,58.98
2022-08-24T22:41:29.394Z,58.94
2022-08-24T22:44:15.533Z,59.05
2022-08-24T22:46:43.926Z,59.34
2022-08-24T22:49:13.590Z,59.06
2022-08-24T22:51:42.199Z,59.20
2022-08-24T22:54:11.328Z,59.38
2022-08-24T22:56:42.157Z,59.69
2022-08-24T22:59:14.720Z,60.05
2022-08-24T23:01:45.763Z,60.43
2022-08-24T23:04:18.255Z,59.85
2022-08-24T23:06:46.347Z,60.58
2022-08-24T23:09:14.390Z,60.78
2022-08-24T23:11:42.609Z,60.73
2022-08-24T23:14:14.574Z,60.80
2022-08-24T23:16:47.689Z,60.88
2022-08-24T23:19:36.143Z,60.73
2022-08-24T23:22:05.594Z,61.15
2022-08-24T23:24:34.075Z,60.85
2022-08-24T23:27:03.050Z,61.08
2022-08-24T23:29:33.565Z,61.02
2022-08-24T23:32:01.864Z,61.07
2022-08-24T23:34:31.846Z,61.36
2022-08-24T23:37:00.148Z,61.59
2022-08-24T23:39:28.795Z,61.62
2022-08-24T23:41:57.059Z,61.75
2022-08-24T23:44:28.481Z,61.73
2022-08-24T23:46:57.996Z,61.52
2022-08-24T23:49:28.109Z,61.56
2022-08-24T23:51:59.571Z,61.68
2022-08-24T23:54:28.248Z,62.05
2022-08-24T23:56:57.505Z,61.96
2022-08-24T23:59:29.328Z,62.24
